createdAt,value
2023-02-23T00:01:16.053Z,22.63
2023-02-23T00:06:19.297Z,22.53
2023-02-23T00:11:21.306Z,20.67
2023-02-23T00:16:24.033Z,22.43
2023-02-23T00:21:29.853Z,21.27
2023-02-23T00:26:33.827Z,22.90
2023-02-23T00:31:35.597Z,23.57
2023-02-23T00:36:38.873Z,23.30
2023-02-23T00:41:40.593Z,24.80
2023-02-23T00:46:43.233Z,25.17
2023-02-23T00:51:46.914Z,23.57
2023-02-23T00:56:48.644Z,24.27
2023-02-23T01:01:51.153Z,24.50
2023-02-23T01:06:57.339Z,24.50
2023-02-23T01:12:02.316Z,25.00
2023-02-23T01:17:04.084Z,26.47
2023-02-23T01:22:07.068Z,25.80
2023-02-23T01:27:08.733Z,24.30
2023-02-23T01:32:10.484Z,24.57
2023-02-23T01:37:13.579Z,25.33
2023-02-23T01:42:15.290Z,24.70
2023-02-23T01:47:20.302Z,20.92
2023-02-23T01:52:23.366Z,20.00
2023-02-23T01:57:25.269Z,15.73
2023-02-23T02:02:33.717Z,17.40
2023-02-23T02:07:36.970Z,20.60
2023-02-23T02:12:39.153Z,20.20
2023-02-23T02:17:42.427Z,19.27
2023-02-23T02:22:59.038Z,24.10
2023-02-23T02:28:24.253Z,21.77
2023-02-23T02:33:50.820Z,17.70
2023-02-23T02:38:55.986Z,18.33
2023-02-23T02:43:58.775Z,17.60
2023-02-23T02:49:02.532Z,16.43
2023-02-23T02:54:10.544Z,16.80
2023-02-23T02:59:32.091Z,9.60
2023-02-23T03:04:52.735Z,16.17
2023-02-23T03:10:16.851Z,20.50
2023-02-23T03:15:47.743Z,22.70
2023-02-23T03:21:10.043Z,24.37
2023-02-23T03:26:33.238Z,24.40
2023-02-23T03:31:57.217Z,23.53
2023-02-23T03:37:20.048Z,23.07
2023-02-23T03:42:45.368Z,25.23
2023-02-23T03:48:05.639Z,24.63
2023-02-23T03:53:25.968Z,25.07
2023-02-23T03:58:49.945Z,24.67
2023-02-23T04:04:10.148Z,26.03
2023-02-23T04:09:30.582Z,26.40
2023-02-23T04:14:36.338Z,26.33
2023-02-23T04:19:38.069Z,26.20
2023-02-23T04:24:39.998Z,26.10
2023-02-23T04:29:43.467Z,27.90
2023-02-23T04:34:45.222Z,28.57
2023-02-23T04:39:49.842Z,27.70
2023-02-23T04:44:52.825Z,29.03
2023-02-23T04:49:54.451Z,28.77
2023-02-23T04:54:56.074Z,30.00
2023-02-23T04:59:59.099Z,29.40
2023-02-23T05:05:00.814Z,31.83
2023-02-23T05:10:02.637Z,32.42
2023-02-23T05:15:07.174Z,31.33
2023-02-23T05:20:10.206Z,33.53
2023-02-23T05:25:11.865Z,33.57
2023-02-23T05:30:15.451Z,33.20
2023-02-23T05:35:17.164Z,35.53
2023-02-23T05:40:19.069Z,35.20
2023-02-23T05:45:22.141Z,36.83
2023-02-23T05:50:23.805Z,36.93
2023-02-23T05:55:25.670Z,36.00
2023-02-23T06:00:28.685Z,39.50
2023-02-23T06:05:30.577Z,46.13
2023-02-23T06:10:32.247Z,36.72
2023-02-23T06:15:35.280Z,37.17
2023-02-23T06:20:39.462Z,36.70
2023-02-23T06:25:42.207Z,36.53
2023-02-23T06:30:46.636Z,37.60
2023-02-23T06:35:48.301Z,35.77
2023-02-23T06:40:49.965Z,35.37
2023-02-23T06:45:53.043Z,35.38
2023-02-23T06:50:54.808Z,34.20
2023-02-23T06:55:56.620Z,36.03
2023-02-23T07:00:59.648Z,35.90
2023-02-23T07:06:01.327Z,34.43
2023-02-23T07:11:07.171Z,35.97
2023-02-23T07:16:10.988Z,38.50
2023-02-23T07:21:12.646Z,36.80
2023-02-23T07:26:15.807Z,39.30
2023-02-23T07:31:19.690Z,39.43
2023-02-23T07:36:21.719Z,39.17
2023-02-23T07:41:23.426Z,42.30
2023-02-23T07:46:26.781Z,41.58
2023-02-23T07:51:28.463Z,40.75
2023-02-23T07:56:30.192Z,38.25
2023-02-23T08:01:33.260Z,42.27
2023-02-23T08:06:34.948Z,40.80
2023-02-23T08:11:36.670Z,41.20
2023-02-23T08:16:39.732Z,41.27
2023-02-23T08:21:43.240Z,42.90
2023-02-23T08:26:44.894Z,43.47
2023-02-23T08:31:48.078Z,40.57
2023-02-23T08:36:50.760Z,42.13
2023-02-23T08:41:55.513Z,43.87
2023-02-23T08:46:58.757Z,41.57
2023-02-23T08:52:00.466Z,45.20
2023-02-23T08:57:02.138Z,42.57
2023-02-23T09:02:05.412Z,42.78
2023-02-23T09:07:07.264Z,43.27
2023-02-23T09:12:08.975Z,43.50
2023-02-23T09:17:12.800Z,44.83
2023-02-23T09:22:14.445Z,43.30
2023-02-23T09:27:16.180Z,44.27
2023-02-23T09:32:19.247Z,45.35
2023-02-23T09:37:21.009Z,44.40
2023-02-23T09:42:28.441Z,42.43
2023-02-23T09:47:40.394Z,41.57
2023-02-23T09:52:44.818Z,43.80
2023-02-23T09:57:47.687Z,44.27
2023-02-23T10:03:10.454Z,43.57
2023-02-23T10:08:19.116Z,41.60
2023-02-23T10:13:24.328Z,42.73
2023-02-23T10:18:45.781Z,42.33
2023-02-23T10:23:49.549Z,39.27
2023-02-23T10:28:51.313Z,38.23
2023-02-23T10:33:55.288Z,35.00
2023-02-23T10:38:56.956Z,34.37
2023-02-23T10:44:07.909Z,35.30
2023-02-23T10:49:24.661Z,33.87
2023-02-23T10:54:45.578Z,33.10
2023-02-23T11:00:27.600Z,32.40
2023-02-23T11:05:36.859Z,33.70
2023-02-23T11:10:38.885Z,31.10
2023-02-23T11:15:50.621Z,31.50
2023-02-23T11:20:54.616Z,33.13
2023-02-23T11:26:00.037Z,34.10
2023-02-23T11:31:03.364Z,35.50
2023-02-23T11:36:18.028Z,32.73
2023-02-23T11:41:21.841Z,34.17
2023-02-23T11:46:24.052Z,34.60
2023-02-23T11:51:28.990Z,33.53
2023-02-23T11:56:31.857Z,34.37
2023-02-23T12:01:45.193Z,33.90
2023-02-23T12:06:48.255Z,32.90
2023-02-23T12:11:53.034Z,33.70
2023-02-23T12:16:56.607Z,32.13
2023-02-23T12:22:02.445Z,33.17
2023-02-23T12:27:06.322Z,32.30
2023-02-23T12:32:10.407Z,32.97
2023-02-23T12:37:20.016Z,33.30
2023-02-23T12:42:23.851Z,34.33
2023-02-23T12:47:29.502Z,34.10
2023-02-23T12:52:33.612Z,31.23
2023-02-23T12:57:38.682Z,31.17
2023-02-23T13:02:41.296Z,30.20
2023-02-23T13:07:48.304Z,31.57
2023-02-23T13:12:54.947Z,30.53
2023-02-23T13:17:59.449Z,30.95
2023-02-23T13:23:09.444Z,30.50
2023-02-23T13:28:15.792Z,30.63
2023-02-23T13:33:32.192Z,29.40
2023-02-23T13:38:47.773Z,27.53
2023-02-23T13:43:52.195Z,27.98
2023-02-23T13:48:59.267Z,27.17
2023-02-23T13:54:06.613Z,28.23
2023-02-23T13:59:10.191Z,27.20
2023-02-23T14:04:14.076Z,26.37
2023-02-23T14:09:21.945Z,26.40
2023-02-23T14:14:42.293Z,26.47
2023-02-23T14:19:44.912Z,30.50
2023-02-23T14:24:47.925Z,26.57
2023-02-23T14:30:17.142Z,26.40
2023-02-23T14:35:44.242Z,26.10
2023-02-23T14:40:48.815Z,25.90
2023-02-23T14:45:51.108Z,31.57
2023-02-23T14:51:27.532Z,26.93
2023-02-23T14:56:43.542Z,26.80
2023-02-23T15:01:45.733Z,27.37
2023-02-23T15:06:47.445Z,28.50
2023-02-23T15:11:53.909Z,29.60
2023-02-23T15:16:55.954Z,29.30
2023-02-23T15:21:58.793Z,29.03
2023-02-23T15:27:01.972Z,27.98
2023-02-23T15:32:17.117Z,26.30
2023-02-23T15:37:23.770Z,27.37
2023-02-23T15:42:31.066Z,28.33
2023-02-23T15:47:33.843Z,26.87
2023-02-23T15:52:36.704Z,27.10
2023-02-23T15:57:47.133Z,28.33
2023-02-23T16:02:48.982Z,27.30
2023-02-23T16:08:01.616Z,26.60
2023-02-23T16:13:04.981Z,26.10
2023-02-23T16:18:10.468Z,24.50
2023-02-23T16:23:17.720Z,24.57
2023-02-23T16:28:23.079Z,24.10
2023-02-23T16:33:25.530Z,25.53
2023-02-23T16:38:28.277Z,25.63
2023-02-23T16:43:35.154Z,25.50
2023-02-23T16:48:36.960Z,25.73
2023-02-23T16:53:40.555Z,23.53
2023-02-23T16:58:45.785Z,24.50
2023-02-23T17:03:52.856Z,29.90
2023-02-23T17:08:58.268Z,23.80
2023-02-23T17:14:01.642Z,23.63
2023-02-23T17:19:03.370Z,24.53
2023-02-23T17:24:05.566Z,24.43
2023-02-23T17:29:08.624Z,22.30
2023-02-23T17:34:10.308Z,22.70
2023-02-23T17:39:14.161Z,20.07
2023-02-23T17:44:17.233Z,25.90
2023-02-23T17:49:19.052Z,27.50
2023-02-23T17:54:20.806Z,31.27
2023-02-23T17:59:23.928Z,33.37
2023-02-23T18:04:25.849Z,30.47
2023-02-23T18:09:28.098Z,31.57
2023-02-23T18:14:31.180Z,30.23
2023-02-23T18:19:32.902Z,30.60
2023-02-23T18:24:34.606Z,31.67
2023-02-23T18:29:37.690Z,30.50
2023-02-23T18:34:39.363Z,34.50
2023-02-23T18:39:41.092Z,32.97
2023-02-23T18:44:44.655Z,33.30
2023-02-23T18:49:46.377Z,34.57
2023-02-23T18:54:48.165Z,34.57
2023-02-23T18:59:51.270Z,35.30
2023-02-23T19:04:53.202Z,35.73
2023-02-23T19:09:55.077Z,36.20
2023-02-23T19:14:58.440Z,34.17
2023-02-23T19:20:00.661Z,34.80
2023-02-23T19:25:02.515Z,36.17
2023-02-23T19:30:09.837Z,36.60
2023-02-23T19:35:14.530Z,34.20
2023-02-23T19:40:19.439Z,35.87
2023-02-23T19:45:25.885Z,36.57
2023-02-23T19:50:27.792Z,36.90
2023-02-23T19:55:29.687Z,35.87
2023-02-23T20:00:32.774Z,33.87
2023-02-23T20:05:42.367Z,34.40
2023-02-23T20:10:45.238Z,25.80
2023-02-23T20:15:48.240Z,21.53
2023-02-23T20:20:49.956Z,18.40
2023-02-23T20:25:51.696Z,15.53
2023-02-23T20:30:54.776Z,12.40
2023-02-23T20:35:56.693Z,7.10
2023-02-23T20:40:58.717Z,6.20
2023-02-23T20:46:02.730Z,6.47
2023-02-23T20:51:08.380Z,6.37
2023-02-23T20:56:10.215Z,6.53
2023-02-23T21:01:23.114Z,5.47
2023-02-23T21:06:25.969Z,5.93
2023-02-23T21:11:27.722Z,5.90
2023-02-23T21:16:32.389Z,5.10
2023-02-23T21:21:38.179Z,5.23
2023-02-23T21:26:39.907Z,5.17
2023-02-23T21:31:43.342Z,5.67
2023-02-23T21:36:45.116Z,3.90
2023-02-23T21:41:46.817Z,5.20
2023-02-23T21:46:51.516Z,5.53
2023-02-23T21:51:55.069Z,4.07
2023-02-23T21:56:56.826Z,4.30
2023-02-23T22:01:59.962Z,4.60
2023-02-23T22:07:02.207Z,4.30
2023-02-23T22:12:04.631Z,4.70
2023-02-23T22:17:09.662Z,4.80
2023-02-23T22:22:11.537Z,4.80
2023-02-23T22:27:13.869Z,4.80
2023-02-23T22:32:17.707Z,5.00
2023-02-23T22:37:21.850Z,4.00
2023-02-23T22:42:24.450Z,3.80
2023-02-23T22:47:27.534Z,3.40
2023-02-23T22:52:30.028Z,4.03
2023-02-23T22:57:31.774Z,5.17
2023-02-23T23:02:36.197Z,4.80
2023-02-23T23:07:37.947Z,4.82
2023-02-23T23:12:40.325Z,4.50
2023-02-23T23:17:48.487Z,4.70
2023-02-23T23:22:50.305Z,3.70
2023-02-23T23:27:52.482Z,4.00
2023-02-23T23:32:55.770Z,4.87
2023-02-23T23:37:57.575Z,4.67
2023-02-23T23:43:01.945Z,3.70
2023-02-23T23:48:09.406Z,3.80
2023-02-23T23:53:11.161Z,4.30
2023-02-23T23:58:13.930Z,3.90
